sensor_id;sensor_type;location;lat;lon;timestamp;P1;durP1;ratioP1;P2;durP2;ratioP2
19671;SDS011;9983;51.114;13.788;2023-07-13T00:03:36;3.63;;;2.20;;
19671;SDS011;9983;51.114;13.788;2023-07-13T00:08:36;2.67;;;2.47;;
19671;SDS011;9983;51.114;13.788;2023-07-13T00:13:36;2.10;;;2.00;;
19671;SDS011;9983;51.114;13.788;2023-07-13T00:18:39;2.13;;;2.03;;
19671;SDS011;9983;51.114;13.788;2023-07-13T00:23:40;2.40;;;2.20;;
19671;SDS011;9983;51.114;13.788;2023-07-13T00:28:42;2.88;;;2.10;;
19671;SDS011;9983;51.114;13.788;2023-07-13T00:33:42;2.87;;;2.20;;
19671;SDS011;9983;51.114;13.788;2023-07-13T00:38:43;2.92;;;2.17;;
19671;SDS011;9983;51.114;13.788;2023-07-13T00:43:43;2.85;;;2.10;;
19671;SDS011;9983;51.114;13.788;2023-07-13T00:48:44;2.05;;;1.95;;
19671;SDS011;9983;51.114;13.788;2023-07-13T00:53:47;2.10;;;2.00;;
19671;SDS011;9983;51.114;13.788;2023-07-13T00:58:47;2.03;;;1.92;;
19671;SDS011;9983;51.114;13.788;2023-07-13T01:03:48;4.00;;;2.38;;
19671;SDS011;9983;51.114;13.788;2023-07-13T01:08:48;3.30;;;2.35;;
19671;SDS011;9983;51.114;13.788;2023-07-13T01:13:49;4.40;;;2.60;;
19671;SDS011;9983;51.114;13.788;2023-07-13T01:18:49;3.30;;;2.30;;
19671;SDS011;9983;51.114;13.788;2023-07-13T01:23:50;2.65;;;2.30;;
19671;SDS011;9983;51.114;13.788;2023-07-13T01:28:50;2.58;;;2.30;;
19671;SDS011;9983;51.114;13.788;2023-07-13T01:33:51;2.60;;;2.40;;
19671;SDS011;9983;51.114;13.788;2023-07-13T01:38:51;2.40;;;2.30;;
19671;SDS011;9983;51.114;13.788;2023-07-13T01:43:52;2.40;;;2.20;;
19671;SDS011;9983;51.114;13.788;2023-07-13T01:48:52;2.83;;;2.63;;
19671;SDS011;9983;51.114;13.788;2023-07-13T01:53:52;3.42;;;2.50;;
19671;SDS011;9983;51.114;13.788;2023-07-13T01:58:52;2.50;;;2.40;;
19671;SDS011;9983;51.114;13.788;2023-07-13T02:03:53;2.53;;;2.42;;
19671;SDS011;9983;51.114;13.788;2023-07-13T02:08:54;3.53;;;2.90;;
19671;SDS011;9983;51.114;13.788;2023-07-13T02:13:54;4.13;;;2.78;;
19671;SDS011;9983;51.114;13.788;2023-07-13T02:18:55;2.80;;;2.60;;
19671;SDS011;9983;51.114;13.788;2023-07-13T02:23:55;3.13;;;2.83;;
19671;SDS011;9983;51.114;13.788;2023-07-13T02:28:57;2.92;;;2.60;;
19671;SDS011;9983;51.114;13.788;2023-07-13T02:33:57;3.42;;;2.70;;
19671;SDS011;9983;51.114;13.788;2023-07-13T02:39:00;3.10;;;2.83;;
19671;SDS011;9983;51.114;13.788;2023-07-13T02:44:01;2.90;;;2.70;;
19671;SDS011;9983;51.114;13.788;2023-07-13T02:49:05;5.82;;;2.95;;
19671;SDS011;9983;51.114;13.788;2023-07-13T02:54:06;2.88;;;2.63;;
19671;SDS011;9983;51.114;13.788;2023-07-13T02:59:08;2.70;;;2.50;;
19671;SDS011;9983;51.114;13.788;2023-07-13T03:04:09;3.97;;;2.92;;
19671;SDS011;9983;51.114;13.788;2023-07-13T03:09:09;5.10;;;2.33;;
19671;SDS011;9983;51.114;13.788;2023-07-13T03:14:09;3.40;;;3.03;;
19671;SDS011;9983;51.114;13.788;2023-07-13T03:19:09;2.85;;;2.65;;
19671;SDS011;9983;51.114;13.788;2023-07-13T03:24:11;4.80;;;2.60;;
19671;SDS011;9983;51.114;13.788;2023-07-13T03:29:11;3.10;;;2.80;;
19671;SDS011;9983;51.114;13.788;2023-07-13T03:34:11;3.45;;;2.80;;
19671;SDS011;9983;51.114;13.788;2023-07-13T03:39:12;2.90;;;2.70;;
19671;SDS011;9983;51.114;13.788;2023-07-13T03:44:12;2.97;;;2.72;;
19671;SDS011;9983;51.114;13.788;2023-07-13T03:49:13;2.85;;;2.65;;
19671;SDS011;9983;51.114;13.788;2023-07-13T03:54:13;3.33;;;3.03;;
19671;SDS011;9983;51.114;13.788;2023-07-13T03:59:14;2.97;;;2.72;;
19671;SDS011;9983;51.114;13.788;2023-07-13T04:04:14;3.55;;;2.85;;
19671;SDS011;9983;51.114;13.788;2023-07-13T04:09:15;3.40;;;3.10;;
19671;SDS011;9983;51.114;13.788;2023-07-13T04:14:16;2.92;;;2.65;;
19671;SDS011;9983;51.114;13.788;2023-07-13T04:19:16;3.60;;;2.60;;
19671;SDS011;9983;51.114;13.788;2023-07-13T04:24:16;3.25;;;2.78;;
19671;SDS011;9983;51.114;13.788;2023-07-13T04:29:17;4.00;;;3.03;;
19671;SDS011;9983;51.114;13.788;2023-07-13T04:34:17;2.90;;;2.60;;
19671;SDS011;9983;51.114;13.788;2023-07-13T04:39:17;2.90;;;2.50;;
19671;SDS011;9983;51.114;13.788;2023-07-13T04:44:18;3.17;;;2.90;;
19671;SDS011;9983;51.114;13.788;2023-07-13T04:49:18;4.20;;;3.20;;
19671;SDS011;9983;51.114;13.788;2023-07-13T04:54:18;3.53;;;2.90;;
19671;SDS011;9983;51.114;13.788;2023-07-13T04:59:18;5.18;;;3.30;;
19671;SDS011;9983;51.114;13.788;2023-07-13T05:04:19;3.15;;;2.75;;
19671;SDS011;9983;51.114;13.788;2023-07-13T05:09:19;7.18;;;2.80;;
19671;SDS011;9983;51.114;13.788;2023-07-13T05:14:19;3.17;;;2.88;;
19671;SDS011;9983;51.114;13.788;2023-07-13T05:19:19;5.00;;;3.10;;
19671;SDS011;9983;51.114;13.788;2023-07-13T05:24:20;3.00;;;2.80;;
19671;SDS011;9983;51.114;13.788;2023-07-13T05:29:21;2.63;;;2.42;;
19671;SDS011;9983;51.114;13.788;2023-07-13T05:34:21;2.72;;;2.53;;
19671;SDS011;9983;51.114;13.788;2023-07-13T05:39:22;3.47;;;2.20;;
19671;SDS011;9983;51.114;13.788;2023-07-13T05:44:22;2.33;;;2.20;;
19671;SDS011;9983;51.114;13.788;2023-07-13T05:49:23;3.37;;;2.70;;
19671;SDS011;9983;51.114;13.788;2023-07-13T05:54:23;3.72;;;2.40;;
19671;SDS011;9983;51.114;13.788;2023-07-13T05:59:24;2.85;;;2.42;;
19671;SDS011;9983;51.114;13.788;2023-07-13T06:04:25;2.50;;;2.30;;
19671;SDS011;9983;51.114;13.788;2023-07-13T06:09:25;3.10;;;2.80;;
19671;SDS011;9983;51.114;13.788;2023-07-13T06:14:25;2.90;;;2.60;;
19671;SDS011;9983;51.114;13.788;2023-07-13T06:19:26;4.75;;;2.65;;
19671;SDS011;9983;51.114;13.788;2023-07-13T06:24:26;2.75;;;2.30;;
19671;SDS011;9983;51.114;13.788;2023-07-13T06:29:26;3.42;;;2.40;;
19671;SDS011;9983;51.114;13.788;2023-07-13T06:34:27;2.22;;;2.13;;
19671;SDS011;9983;51.114;13.788;2023-07-13T06:39:27;4.25;;;2.67;;
19671;SDS011;9983;51.114;13.788;2023-07-13T06:44:27;4.45;;;2.40;;
19671;SDS011;9983;51.114;13.788;2023-07-13T06:49:27;2.28;;;2.08;;
19671;SDS011;9983;51.114;13.788;2023-07-13T06:54:28;5.90;;;2.30;;
19671;SDS011;9983;51.114;13.788;2023-07-13T06:59:28;2.65;;;2.45;;
19671;SDS011;9983;51.114;13.788;2023-07-13T07:04:28;3.90;;;2.30;;
19671;SDS011;9983;51.114;13.788;2023-07-13T07:09:29;4.13;;;2.10;;
19671;SDS011;9983;51.114;13.788;2023-07-13T07:14:31;2.30;;;2.10;;
19671;SDS011;9983;51.114;13.788;2023-07-13T07:19:31;3.92;;;2.35;;
19671;SDS011;9983;51.114;13.788;2023-07-13T07:24:32;2.40;;;2.23;;
19671;SDS011;9983;51.114;13.788;2023-07-13T07:29:32;4.47;;;2.25;;
19671;SDS011;9983;51.114;13.788;2023-07-13T07:34:32;2.88;;;2.28;;
19671;SDS011;9983;51.114;13.788;2023-07-13T07:39:33;3.00;;;2.63;;
19671;SDS011;9983;51.114;13.788;2023-07-13T07:44:33;3.23;;;2.30;;
19671;SDS011;9983;51.114;13.788;2023-07-13T07:49:34;1.98;;;1.77;;
19671;SDS011;9983;51.114;13.788;2023-07-13T07:54:35;2.83;;;1.92;;
19671;SDS011;9983;51.114;13.788;2023-07-13T07:59:36;2.72;;;1.85;;
19671;SDS011;9983;51.114;13.788;2023-07-13T08:04:37;4.00;;;2.20;;
19671;SDS011;9983;51.114;13.788;2023-07-13T08:09:37;2.70;;;2.50;;
19671;SDS011;9983;51.114;13.788;2023-07-13T08:14:37;3.50;;;2.30;;
19671;SDS011;9983;51.114;13.788;2023-07-13T08:19:38;3.53;;;2.40;;
19671;SDS011;9983;51.114;13.788;2023-07-13T08:24:38;4.15;;;2.58;;
19671;SDS011;9983;51.114;13.788;2023-07-13T08:29:39;2.42;;;2.22;;
19671;SDS011;9983;51.114;13.788;2023-07-13T08:34:39;3.17;;;2.40;;
19671;SDS011;9983;51.114;13.788;2023-07-13T08:39:40;2.40;;;1.80;;
19671;SDS011;9983;51.114;13.788;2023-07-13T08:45:42;2.50;;;2.33;;
19671;SDS011;9983;51.114;13.788;2023-07-13T08:50:34;1.90;;;1.80;;
19671;SDS011;9983;51.114;13.788;2023-07-13T08:55:41;3.65;;;2.20;;
19671;SDS011;9983;51.114;13.788;2023-07-13T09:00:44;2.25;;;1.70;;
19671;SDS011;9983;51.114;13.788;2023-07-13T09:05:56;1.85;;;1.75;;
19671;SDS011;9983;51.114;13.788;2023-07-13T09:16:32;1.75;;;1.50;;
19671;SDS011;9983;51.114;13.788;2023-07-13T09:21:36;2.17;;;1.60;;
19671;SDS011;9983;51.114;13.788;2023-07-13T09:26:40;2.15;;;1.80;;
19671;SDS011;9983;51.114;13.788;2023-07-13T09:31:42;2.08;;;1.90;;
19671;SDS011;9983;51.114;13.788;2023-07-13T09:36:45;2.85;;;2.10;;
19671;SDS011;9983;51.114;13.788;2023-07-13T09:41:51;2.75;;;1.55;;
19671;SDS011;9983;51.114;13.788;2023-07-13T09:46:55;3.35;;;2.20;;
19671;SDS011;9983;51.114;13.788;2023-07-13T09:51:59;1.70;;;1.60;;
19671;SDS011;9983;51.114;13.788;2023-07-13T09:57:02;2.35;;;1.80;;
19671;SDS011;9983;51.114;13.788;2023-07-13T10:07:30;3.90;;;2.30;;
19671;SDS011;9983;51.114;13.788;2023-07-13T10:12:35;3.00;;;1.90;;
19671;SDS011;9983;51.114;13.788;2023-07-13T10:17:37;5.78;;;1.70;;
19671;SDS011;9983;51.114;13.788;2023-07-13T10:22:41;2.42;;;1.70;;
19671;SDS011;9983;51.114;13.788;2023-07-13T10:27:49;2.50;;;1.77;;
19671;SDS011;9983;51.114;13.788;2023-07-13T10:32:52;2.08;;;1.67;;
19671;SDS011;9983;51.114;13.788;2023-07-13T10:37:54;2.60;;;2.00;;
19671;SDS011;9983;51.114;13.788;2023-07-13T10:42:58;1.33;;;1.25;;
19671;SDS011;9983;51.114;13.788;2023-07-13T10:48:01;2.05;;;1.60;;
19671;SDS011;9983;51.114;13.788;2023-07-13T10:53:03;1.67;;;1.58;;
19671;SDS011;9983;51.114;13.788;2023-07-13T11:03:22;2.25;;;1.50;;
19671;SDS011;9983;51.114;13.788;2023-07-13T11:08:33;3.20;;;1.77;;
19671;SDS011;9983;51.114;13.788;2023-07-13T11:13:55;2.35;;;1.50;;
19671;SDS011;9983;51.114;13.788;2023-07-13T11:34:14;4.88;;;1.63;;
19671;SDS011;9983;51.114;13.788;2023-07-13T11:39:20;2.75;;;1.63;;
19671;SDS011;9983;51.114;13.788;2023-07-13T11:44:30;4.13;;;1.50;;
19671;SDS011;9983;51.114;13.788;2023-07-13T11:49:38;2.72;;;1.67;;
19671;SDS011;9983;51.114;13.788;2023-07-13T11:54:49;1.83;;;1.73;;
19671;SDS011;9983;51.114;13.788;2023-07-13T11:59:55;2.92;;;1.70;;
19671;SDS011;9983;51.114;13.788;2023-07-13T12:04:56;1.85;;;1.75;;
19671;SDS011;9983;51.114;13.788;2023-07-13T12:15:36;2.38;;;1.50;;
19671;SDS011;9983;51.114;13.788;2023-07-13T12:20:39;1.63;;;1.52;;
19671;SDS011;9983;51.114;13.788;2023-07-13T12:25:40;1.67;;;1.57;;
19671;SDS011;9983;51.114;13.788;2023-07-13T12:30:40;1.88;;;1.30;;
19671;SDS011;9983;51.114;13.788;2023-07-13T12:35:42;1.60;;;1.50;;
19671;SDS011;9983;51.114;13.788;2023-07-13T12:40:48;1.95;;;1.40;;
19671;SDS011;9983;51.114;13.788;2023-07-13T12:45:57;2.63;;;1.77;;
19671;SDS011;9983;51.114;13.788;2023-07-13T12:51:00;3.40;;;1.98;;
19671;SDS011;9983;51.114;13.788;2023-07-13T12:56:02;2.67;;;1.60;;
19671;SDS011;9983;51.114;13.788;2023-07-13T13:01:03;2.35;;;1.75;;
19671;SDS011;9983;51.114;13.788;2023-07-13T13:06:06;1.70;;;1.60;;
19671;SDS011;9983;51.114;13.788;2023-07-13T13:11:22;2.15;;;1.50;;
19671;SDS011;9983;51.114;13.788;2023-07-13T13:21:31;2.65;;;1.40;;
19671;SDS011;9983;51.114;13.788;2023-07-13T13:26:32;2.70;;;1.52;;
19671;SDS011;9983;51.114;13.788;2023-07-13T13:31:33;2.15;;;1.45;;
19671;SDS011;9983;51.114;13.788;2023-07-13T13:36:34;2.60;;;1.60;;
19671;SDS011;9983;51.114;13.788;2023-07-13T13:41:34;3.60;;;1.63;;
19671;SDS011;9983;51.114;13.788;2023-07-13T13:46:35;2.07;;;1.60;;
19671;SDS011;9983;51.114;13.788;2023-07-13T13:51:35;2.03;;;1.70;;
19671;SDS011;9983;51.114;13.788;2023-07-13T13:56:36;2.95;;;1.35;;
19671;SDS011;9983;51.114;13.788;2023-07-13T14:01:36;1.50;;;1.40;;
19671;SDS011;9983;51.114;13.788;2023-07-13T14:06:37;2.33;;;1.50;;
19671;SDS011;9983;51.114;13.788;2023-07-13T14:11:38;1.83;;;1.48;;
19671;SDS011;9983;51.114;13.788;2023-07-13T14:16:41;3.40;;;1.73;;
19671;SDS011;9983;51.114;13.788;2023-07-13T14:21:46;2.03;;;1.65;;
19671;SDS011;9983;51.114;13.788;2023-07-13T14:26:47;3.60;;;1.60;;
19671;SDS011;9983;51.114;13.788;2023-07-13T14:31:48;1.77;;;1.67;;
19671;SDS011;9983;51.114;13.788;2023-07-13T14:36:48;2.00;;;1.50;;
19671;SDS011;9983;51.114;13.788;2023-07-13T14:41:51;2.00;;;1.65;;
19671;SDS011;9983;51.114;13.788;2023-07-13T14:46:56;1.77;;;1.67;;
19671;SDS011;9983;51.114;13.788;2023-07-13T14:51:59;2.08;;;1.50;;
19671;SDS011;9983;51.114;13.788;2023-07-13T14:57:01;2.15;;;1.50;;
19671;SDS011;9983;51.114;13.788;2023-07-13T15:02:02;2.07;;;1.53;;
19671;SDS011;9983;51.114;13.788;2023-07-13T15:07:02;2.92;;;1.42;;
19671;SDS011;9983;51.114;13.788;2023-07-13T15:12:03;1.53;;;1.43;;
19671;SDS011;9983;51.114;13.788;2023-07-13T15:17:23;1.80;;;1.40;;
19671;SDS011;9983;51.114;13.788;2023-07-13T15:22:31;1.60;;;1.50;;
19671;SDS011;9983;51.114;13.788;2023-07-13T15:27:31;1.40;;;1.30;;
19671;SDS011;9983;51.114;13.788;2023-07-13T15:32:32;2.20;;;1.30;;
19671;SDS011;9983;51.114;13.788;2023-07-13T15:37:32;1.45;;;1.30;;
19671;SDS011;9983;51.114;13.788;2023-07-13T15:42:32;1.40;;;1.20;;
19671;SDS011;9983;51.114;13.788;2023-07-13T15:47:32;3.08;;;1.00;;
19671;SDS011;9983;51.114;13.788;2023-07-13T15:52:33;1.65;;;1.30;;
19671;SDS011;9983;51.114;13.788;2023-07-13T15:57:33;1.10;;;1.10;;
19671;SDS011;9983;51.114;13.788;2023-07-13T16:02:33;1.00;;;0.95;;
19671;SDS011;9983;51.114;13.788;2023-07-13T16:07:33;1.02;;;1.00;;
19671;SDS011;9983;51.114;13.788;2023-07-13T16:12:34;2.35;;;1.10;;
19671;SDS011;9983;51.114;13.788;2023-07-13T16:17:34;1.98;;;1.20;;
19671;SDS011;9983;51.114;13.788;2023-07-13T16:22:34;1.40;;;1.20;;
19671;SDS011;9983;51.114;13.788;2023-07-13T16:27:34;2.63;;;1.20;;
19671;SDS011;9983;51.114;13.788;2023-07-13T16:32:35;1.10;;;1.10;;
19671;SDS011;9983;51.114;13.788;2023-07-13T16:37:35;3.72;;;1.17;;
19671;SDS011;9983;51.114;13.788;2023-07-13T16:42:36;1.17;;;1.17;;
19671;SDS011;9983;51.114;13.788;2023-07-13T16:47:36;1.80;;;1.52;;
19671;SDS011;9983;51.114;13.788;2023-07-13T16:52:41;2.42;;;1.90;;
19671;SDS011;9983;51.114;13.788;2023-07-13T16:57:42;1.90;;;1.80;;
19671;SDS011;9983;51.114;13.788;2023-07-13T17:02:43;2.35;;;2.00;;
19671;SDS011;9983;51.114;13.788;2023-07-13T17:07:44;2.38;;;2.08;;
19671;SDS011;9983;51.114;13.788;2023-07-13T17:12:46;4.18;;;2.50;;
19671;SDS011;9983;51.114;13.788;2023-07-13T17:17:48;2.55;;;1.80;;
19671;SDS011;9983;51.114;13.788;2023-07-13T17:22:52;1.85;;;1.70;;
19671;SDS011;9983;51.114;13.788;2023-07-13T17:27:53;1.80;;;1.70;;
19671;SDS011;9983;51.114;13.788;2023-07-13T17:32:53;1.67;;;1.57;;
19671;SDS011;9983;51.114;13.788;2023-07-13T17:37:55;1.50;;;1.40;;
19671;SDS011;9983;51.114;13.788;2023-07-13T17:42:56;1.65;;;1.40;;
19671;SDS011;9983;51.114;13.788;2023-07-13T17:47:57;1.90;;;1.40;;
19671;SDS011;9983;51.114;13.788;2023-07-13T17:52:59;1.63;;;1.50;;
19671;SDS011;9983;51.114;13.788;2023-07-13T17:58:02;3.13;;;1.60;;
19671;SDS011;9983;51.114;13.788;2023-07-13T18:03:04;2.00;;;1.30;;
19671;SDS011;9983;51.114;13.788;2023-07-13T18:08:32;1.13;;;1.13;;
19671;SDS011;9983;51.114;13.788;2023-07-13T18:13:32;2.85;;;1.10;;
19671;SDS011;9983;51.114;13.788;2023-07-13T18:18:39;2.25;;;1.40;;
19671;SDS011;9983;51.114;13.788;2023-07-13T18:23:40;1.30;;;1.20;;
19671;SDS011;9983;51.114;13.788;2023-07-13T18:28:41;1.00;;;1.00;;
19671;SDS011;9983;51.114;13.788;2023-07-13T18:33:42;1.23;;;1.13;;
19671;SDS011;9983;51.114;13.788;2023-07-13T18:38:46;1.48;;;1.38;;
19671;SDS011;9983;51.114;13.788;2023-07-13T18:43:47;1.20;;;1.05;;
19671;SDS011;9983;51.114;13.788;2023-07-13T18:48:49;1.40;;;1.30;;
19671;SDS011;9983;51.114;13.788;2023-07-13T18:53:51;1.30;;;1.00;;
19671;SDS011;9983;51.114;13.788;2023-07-13T18:58:51;1.58;;;1.48;;
19671;SDS011;9983;51.114;13.788;2023-07-13T19:03:52;1.55;;;1.25;;
19671;SDS011;9983;51.114;13.788;2023-07-13T19:08:52;1.20;;;1.10;;
19671;SDS011;9983;51.114;13.788;2023-07-13T19:13:52;2.03;;;1.33;;
19671;SDS011;9983;51.114;13.788;2023-07-13T19:18:54;1.73;;;1.40;;
19671;SDS011;9983;51.114;13.788;2023-07-13T19:23:54;3.50;;;1.50;;
19671;SDS011;9983;51.114;13.788;2023-07-13T19:28:55;3.93;;;1.53;;
19671;SDS011;9983;51.114;13.788;2023-07-13T19:33:57;2.42;;;1.40;;
19671;SDS011;9983;51.114;13.788;2023-07-13T19:38:57;1.52;;;1.30;;
19671;SDS011;9983;51.114;13.788;2023-07-13T19:43:58;1.98;;;1.40;;
19671;SDS011;9983;51.114;13.788;2023-07-13T19:48:59;1.50;;;1.40;;
19671;SDS011;9983;51.114;13.788;2023-07-13T19:54:12;1.40;;;1.30;;
19671;SDS011;9983;51.114;13.788;2023-07-13T20:04:30;1.40;;;1.30;;
19671;SDS011;9983;51.114;13.788;2023-07-13T20:09:30;1.95;;;1.25;;
19671;SDS011;9983;51.114;13.788;2023-07-13T20:14:34;1.48;;;1.23;;
19671;SDS011;9983;51.114;13.788;2023-07-13T20:19:34;3.40;;;1.27;;
19671;SDS011;9983;51.114;13.788;2023-07-13T20:24:35;1.63;;;1.23;;
19671;SDS011;9983;51.114;13.788;2023-07-13T20:29:35;2.33;;;1.33;;
19671;SDS011;9983;51.114;13.788;2023-07-13T20:34:37;1.23;;;1.15;;
19671;SDS011;9983;51.114;13.788;2023-07-13T20:39:38;1.02;;;0.93;;
19671;SDS011;9983;51.114;13.788;2023-07-13T20:44:39;2.90;;;1.20;;
19671;SDS011;9983;51.114;13.788;2023-07-13T20:49:39;2.67;;;1.55;;
19671;SDS011;9983;51.114;13.788;2023-07-13T20:54:39;2.20;;;1.15;;
19671;SDS011;9983;51.114;13.788;2023-07-13T20:59:44;2.72;;;1.45;;
19671;SDS011;9983;51.114;13.788;2023-07-13T21:04:45;1.88;;;1.20;;
19671;SDS011;9983;51.114;13.788;2023-07-13T21:09:46;1.42;;;1.17;;
19671;SDS011;9983;51.114;13.788;2023-07-13T21:14:49;3.55;;;1.40;;
19671;SDS011;9983;51.114;13.788;2023-07-13T21:19:50;2.90;;;1.70;;
19671;SDS011;9983;51.114;13.788;2023-07-13T21:24:50;1.47;;;1.30;;
19671;SDS011;9983;51.114;13.788;2023-07-13T21:29:51;3.17;;;1.17;;
19671;SDS011;9983;51.114;13.788;2023-07-13T21:34:53;3.10;;;1.45;;
19671;SDS011;9983;51.114;13.788;2023-07-13T21:39:53;3.07;;;1.57;;
19671;SDS011;9983;51.114;13.788;2023-07-13T21:44:54;2.10;;;1.63;;
19671;SDS011;9983;51.114;13.788;2023-07-13T21:49:54;1.92;;;1.40;;
19671;SDS011;9983;51.114;13.788;2023-07-13T21:54:54;2.20;;;1.30;;
19671;SDS011;9983;51.114;13.788;2023-07-13T21:59:55;4.20;;;1.50;;
19671;SDS011;9983;51.114;13.788;2023-07-13T22:04:55;1.63;;;1.13;;
19671;SDS011;9983;51.114;13.788;2023-07-13T22:09:55;1.58;;;1.10;;
19671;SDS011;9983;51.114;13.788;2023-07-13T22:14:55;1.85;;;1.33;;
19671;SDS011;9983;51.114;13.788;2023-07-13T22:19:56;1.33;;;1.20;;
19671;SDS011;9983;51.114;13.788;2023-07-13T22:24:56;2.35;;;1.73;;
19671;SDS011;9983;51.114;13.788;2023-07-13T22:29:56;2.30;;;1.40;;
19671;SDS011;9983;51.114;13.788;2023-07-13T22:34:57;7.72;;;1.83;;
19671;SDS011;9983;51.114;13.788;2023-07-13T22:39:57;4.25;;;1.60;;
19671;SDS011;9983;51.114;13.788;2023-07-13T22:44:57;2.37;;;1.30;;
19671;SDS011;9983;51.114;13.788;2023-07-13T22:49:58;1.35;;;1.25;;
19671;SDS011;9983;51.114;13.788;2023-07-13T22:54:58;2.40;;;1.38;;
19671;SDS011;9983;51.114;13.788;2023-07-13T22:59:58;3.53;;;2.10;;
19671;SDS011;9983;51.114;13.788;2023-07-13T23:04:58;1.48;;;1.38;;
19671;SDS011;9983;51.114;13.788;2023-07-13T23:10:22;2.33;;;1.50;;
19671;SDS011;9983;51.114;13.788;2023-07-13T23:15:23;1.50;;;1.40;;
19671;SDS011;9983;51.114;13.788;2023-07-13T23:20:33;3.13;;;1.40;;
19671;SDS011;9983;51.114;13.788;2023-07-13T23:25:34;1.40;;;1.30;;
19671;SDS011;9983;51.114;13.788;2023-07-13T23:30:34;1.58;;;1.40;;
19671;SDS011;9983;51.114;13.788;2023-07-13T23:35:36;3.25;;;1.45;;
19671;SDS011;9983;51.114;13.788;2023-07-13T23:40:36;4.43;;;1.50;;
19671;SDS011;9983;51.114;13.788;2023-07-13T23:45:37;2.20;;;1.60;;
19671;SDS011;9983;51.114;13.788;2023-07-13T23:50:37;2.25;;;1.30;;
19671;SDS011;9983;51.114;13.788;2023-07-13T23:55:40;2.03;;;1.45;;
